createdAt,value
2019-02-14T00:01:08.134Z,6.98
2019-02-14T00:03:35.370Z,6.94
2019-02-14T00:06:02.653Z,6.86
2019-02-14T00:08:29.911Z,6.90
2019-02-14T00:10:57.125Z,6.91
2019-02-14T00:13:24.337Z,6.80
2019-02-14T00:15:51.595Z,6.86
2019-02-14T00:18:18.787Z,6.88
2019-02-14T00:20:46.056Z,6.90
2019-02-14T00:23:13.265Z,6.91
2019-02-14T00:25:40.512Z,6.91
2019-02-14T00:28:07.727Z,6.84
2019-02-14T00:30:34.954Z,6.92
2019-02-14T00:33:02.203Z,7.01
2019-02-14T00:35:29.413Z,7.09
2019-02-14T00:37:56.667Z,7.07
2019-02-14T00:40:23.894Z,7.13
2019-02-14T00:42:51.175Z,7.07
2019-02-14T00:45:18.426Z,7.04
2019-02-14T00:47:45.657Z,7.09
2019-02-14T00:50:12.936Z,7.09
2019-02-14T00:52:40.141Z,7.11
2019-02-14T00:55:07.362Z,7.02
2019-02-14T00:57:34.611Z,7.07
2019-02-14T01:00:01.831Z,7.12
2019-02-14T01:02:29.046Z,7.11
2019-02-14T01:04:56.332Z,7.13
2019-02-14T01:07:23.620Z,7.12
2019-02-14T01:09:50.846Z,7.13
2019-02-14T01:12:18.110Z,7.06
2019-02-14T01:14:45.348Z,7.06
2019-02-14T01:17:12.579Z,7.01
2019-02-14T01:19:39.823Z,7.04
2019-02-14T01:22:07.045Z,7.03
2019-02-14T01:24:34.266Z,6.99
2019-02-14T01:27:01.519Z,6.87
2019-02-14T01:29:28.837Z,6.91
2019-02-14T01:31:56.056Z,6.85
2019-02-14T01:34:23.328Z,6.79
2019-02-14T01:36:50.540Z,6.58
2019-02-14T01:39:17.741Z,6.60
2019-02-14T01:41:45.048Z,6.58
2019-02-14T01:44:12.284Z,6.58
2019-02-14T01:46:39.482Z,6.55
2019-02-14T01:49:06.741Z,6.61
2019-02-14T01:51:33.955Z,6.61
2019-02-14T01:54:01.159Z,6.62
2019-02-14T01:56:28.489Z,6.64
2019-02-14T01:58:55.720Z,6.66
2019-02-14T02:01:22.976Z,6.63
2019-02-14T02:03:50.198Z,6.68
2019-02-14T02:06:17.494Z,6.64
2019-02-14T02:08:44.803Z,6.71
2019-02-14T02:11:15.071Z,6.64
2019-02-14T02:13:42.279Z,6.65
2019-02-14T02:16:09.535Z,6.67
2019-02-14T02:18:38.670Z,6.63
2019-02-14T02:21:10.496Z,6.66
2019-02-14T02:23:40.143Z,6.65
2019-02-14T02:26:11.973Z,6.75
2019-02-14T02:28:39.192Z,6.81
2019-02-14T02:31:06.982Z,6.83
2019-02-14T02:33:34.192Z,6.81
2019-02-14T02:36:01.435Z,6.80
2019-02-14T02:38:28.685Z,6.70
2019-02-14T02:40:55.905Z,6.65
2019-02-14T02:43:23.109Z,6.61
2019-02-14T02:45:50.368Z,6.64
2019-02-14T02:48:17.645Z,6.66
2019-02-14T02:50:44.863Z,6.65
2019-02-14T02:53:12.092Z,6.61
2019-02-14T02:55:39.348Z,6.71
2019-02-14T02:58:06.555Z,6.75
2019-02-14T03:00:33.823Z,6.77
2019-02-14T03:03:01.095Z,6.82
2019-02-14T03:05:28.322Z,6.82
2019-02-14T03:07:55.601Z,6.82
2019-02-14T03:10:22.866Z,6.85
2019-02-14T03:12:50.075Z,6.80
2019-02-14T03:15:17.283Z,6.83
2019-02-14T03:17:44.545Z,6.87
2019-02-14T03:20:11.890Z,6.89
2019-02-14T03:22:39.130Z,6.89
2019-02-14T03:25:11.983Z,6.88
2019-02-14T03:27:39.218Z,6.81
2019-02-14T03:30:06.982Z,6.81
2019-02-14T03:32:35.234Z,6.82
2019-02-14T03:35:02.597Z,6.82
2019-02-14T03:37:29.829Z,6.81
2019-02-14T03:39:57.025Z,6.80
2019-02-14T03:42:24.289Z,6.73
2019-02-14T03:44:51.502Z,6.65
2019-02-14T03:47:18.785Z,6.45
2019-02-14T03:49:46.073Z,6.42
2019-02-14T03:52:13.282Z,6.34
2019-02-14T03:54:40.487Z,6.31
2019-02-14T03:57:07.772Z,6.27
2019-02-14T03:59:34.947Z,6.25
2019-02-14T04:02:02.200Z,6.26
2019-02-14T04:04:29.466Z,6.26
2019-02-14T04:06:56.708Z,6.26
2019-02-14T04:09:23.959Z,6.22
2019-02-14T04:11:51.212Z,6.22
2019-02-14T04:14:18.476Z,6.16
2019-02-14T04:16:45.720Z,6.10
2019-02-14T04:19:12.924Z,6.05
2019-02-14T04:21:40.164Z,5.93
2019-02-14T04:24:07.395Z,5.88
2019-02-14T04:26:34.661Z,5.74
2019-02-14T04:29:01.886Z,5.76
2019-02-14T04:31:29.115Z,5.79
2019-02-14T04:33:56.409Z,5.84
2019-02-14T04:36:23.643Z,5.85
2019-02-14T04:38:50.854Z,5.87
2019-02-14T04:41:18.081Z,5.87
2019-02-14T04:43:45.307Z,5.88
2019-02-14T04:46:12.535Z,5.89
2019-02-14T04:48:39.780Z,5.83
2019-02-14T04:51:06.987Z,5.84
2019-02-14T04:53:34.197Z,5.81
2019-02-14T04:56:01.471Z,5.81
2019-02-14T04:58:28.669Z,5.81
2019-02-14T05:00:55.885Z,5.80
2019-02-14T05:03:23.127Z,5.73
2019-02-14T05:05:50.344Z,5.63
2019-02-14T05:08:17.624Z,5.65
2019-02-14T05:10:44.900Z,5.63
2019-02-14T05:13:12.130Z,5.60
2019-02-14T05:15:39.360Z,5.57
2019-02-14T05:18:06.608Z,5.57
2019-02-14T05:20:33.838Z,5.54
2019-02-14T05:23:01.106Z,5.57
2019-02-14T05:25:28.334Z,5.58
2019-02-14T05:27:55.585Z,5.54
2019-02-14T05:30:22.824Z,5.56
2019-02-14T05:32:50.098Z,5.58
2019-02-14T05:35:17.365Z,5.59
2019-02-14T05:37:44.567Z,5.60
2019-02-14T05:40:11.894Z,5.61
2019-02-14T05:42:39.162Z,5.64
2019-02-14T05:45:06.951Z,5.63
2019-02-14T05:47:34.142Z,5.60
2019-02-14T05:50:01.418Z,5.48
2019-02-14T05:52:28.627Z,5.52
2019-02-14T05:54:55.848Z,5.47
2019-02-14T05:57:23.107Z,5.52
2019-02-14T05:59:50.323Z,5.55
2019-02-14T06:02:18.652Z,5.52
2019-02-14T06:04:45.893Z,5.53
2019-02-14T06:07:13.122Z,5.52
2019-02-14T06:09:40.361Z,5.46
2019-02-14T06:12:07.571Z,5.46
2019-02-14T06:14:34.843Z,5.40
2019-02-14T06:17:02.152Z,5.34
2019-02-14T06:19:29.369Z,5.20
2019-02-14T06:21:56.612Z,5.08
2019-02-14T06:24:23.826Z,4.85
2019-02-14T06:26:51.064Z,4.94
2019-02-14T06:29:18.304Z,4.97
2019-02-14T06:31:45.553Z,5.00
2019-02-14T06:34:12.826Z,5.01
2019-02-14T06:36:40.047Z,5.04
2019-02-14T06:39:07.300Z,4.99
2019-02-14T06:41:34.504Z,4.93
2019-02-14T06:44:01.716Z,4.93
2019-02-14T06:46:29.364Z,4.91
2019-02-14T06:48:56.572Z,4.95
2019-02-14T06:51:23.834Z,4.98
2019-02-14T06:53:51.084Z,4.78
2019-02-14T06:56:18.352Z,4.74
2019-02-14T06:58:45.568Z,4.79
2019-02-14T07:01:12.768Z,4.72
2019-02-14T07:03:40.053Z,4.68
2019-02-14T07:06:07.271Z,4.64
2019-02-14T07:08:34.557Z,4.62
2019-02-14T07:11:01.822Z,4.60
2019-02-14T07:13:29.049Z,4.59
2019-02-14T07:15:56.294Z,4.59
2019-02-14T07:18:23.525Z,4.51
2019-02-14T07:20:50.738Z,4.43
2019-02-14T07:23:18.009Z,4.42
2019-02-14T07:25:45.228Z,4.42
2019-02-14T07:28:12.446Z,4.42
2019-02-14T07:30:39.729Z,4.44
2019-02-14T07:33:06.944Z,4.47
2019-02-14T07:35:34.166Z,4.44
2019-02-14T07:38:01.410Z,4.45
2019-02-14T07:40:29.763Z,4.47
2019-02-14T07:42:57.119Z,4.48
2019-02-14T07:45:24.334Z,4.42
2019-02-14T07:47:51.573Z,4.59
2019-02-14T07:50:18.804Z,4.59
2019-02-14T07:52:46.060Z,4.74
2019-02-14T07:55:13.428Z,4.82
2019-02-14T07:57:40.783Z,4.91
2019-02-14T08:00:10.651Z,4.96
2019-02-14T08:02:37.913Z,5.12
2019-02-14T08:05:05.699Z,5.10
2019-02-14T08:07:35.999Z,5.19
2019-02-14T08:10:02.123Z,5.23
2019-02-14T08:12:29.343Z,5.24
2019-02-14T08:14:56.684Z,5.33
2019-02-14T08:17:23.900Z,5.35
2019-02-14T08:19:51.137Z,5.43
2019-02-14T08:22:18.390Z,5.50
2019-02-14T08:24:46.100Z,5.52
2019-02-14T08:27:13.310Z,5.63
2019-02-14T08:29:40.584Z,5.52
2019-02-14T08:32:07.794Z,5.62
2019-02-14T08:34:34.995Z,5.60
2019-02-14T08:37:02.233Z,5.70
2019-02-14T08:39:29.449Z,5.74
2019-02-14T08:41:56.681Z,5.88
2019-02-14T08:44:23.916Z,5.95
2019-02-14T08:46:51.133Z,6.05
2019-02-14T08:49:18.378Z,5.98
2019-02-14T08:51:45.606Z,6.09
2019-02-14T08:54:12.821Z,6.15
2019-02-14T08:56:40.084Z,6.24
2019-02-14T08:59:07.302Z,6.46
2019-02-14T09:01:34.528Z,6.52
2019-02-14T09:04:01.804Z,6.71
2019-02-14T09:06:29.021Z,6.89
2019-02-14T09:08:56.298Z,7.01
2019-02-14T09:11:23.542Z,7.20
2019-02-14T09:13:50.785Z,7.30
2019-02-14T09:16:18.064Z,7.40
2019-02-14T09:18:45.287Z,7.52
2019-02-14T09:21:12.551Z,7.48
2019-02-14T09:23:39.814Z,7.61
2019-02-14T09:26:07.087Z,7.71
2019-02-14T09:28:34.319Z,7.74
2019-02-14T09:31:01.602Z,7.78
2019-02-14T09:33:28.833Z,7.85
2019-02-14T09:35:56.046Z,7.92
2019-02-14T09:38:23.326Z,7.97
2019-02-14T09:40:50.539Z,8.02
2019-02-14T09:43:17.770Z,8.07
2019-02-14T09:45:45.033Z,8.15
2019-02-14T09:48:12.267Z,8.29
2019-02-14T09:50:39.497Z,8.32
2019-02-14T09:53:06.762Z,8.37
2019-02-14T09:55:33.960Z,8.38
2019-02-14T09:58:01.173Z,8.64
2019-02-14T10:00:28.529Z,8.62
2019-02-14T10:02:55.756Z,8.64
2019-02-14T10:05:22.967Z,8.67
2019-02-14T10:07:50.202Z,8.77
2019-02-14T10:10:17.448Z,8.71
2019-02-14T10:12:44.702Z,8.65
2019-02-14T10:15:12.057Z,8.72
2019-02-14T10:17:39.277Z,8.81
2019-02-14T10:20:08.389Z,8.81
2019-02-14T10:22:35.677Z,8.96
2019-02-14T10:25:03.098Z,9.03
2019-02-14T10:27:30.373Z,9.18
2019-02-14T10:29:57.612Z,9.13
2019-02-14T10:32:24.834Z,9.08
2019-02-14T10:34:52.056Z,9.02
2019-02-14T10:37:19.384Z,9.05
2019-02-14T10:39:46.651Z,9.01
2019-02-14T10:42:13.860Z,9.02
2019-02-14T10:44:41.120Z,9.09
2019-02-14T10:47:08.412Z,9.14
2019-02-14T10:49:35.683Z,9.20
2019-02-14T10:52:02.922Z,9.17
2019-02-14T10:54:30.127Z,9.31
2019-02-14T10:56:57.371Z,9.29
2019-02-14T10:59:24.643Z,9.45
2019-02-14T11:01:51.949Z,9.38
2019-02-14T11:04:19.183Z,9.48
2019-02-14T11:06:46.461Z,9.46
2019-02-14T11:09:13.768Z,9.46
2019-02-14T11:11:41.021Z,9.45
2019-02-14T11:14:08.283Z,9.51
2019-02-14T11:16:35.492Z,9.53
2019-02-14T11:19:02.780Z,9.62
2019-02-14T11:21:30.032Z,9.61
2019-02-14T11:23:57.255Z,9.58
2019-02-14T11:26:24.529Z,9.66
2019-02-14T11:28:51.779Z,9.79
2019-02-14T11:31:20.833Z,9.85
2019-02-14T11:33:48.120Z,9.86
2019-02-14T11:36:15.355Z,9.77
2019-02-14T11:38:42.616Z,9.77
2019-02-14T11:41:09.915Z,9.87
2019-02-14T11:43:37.152Z,9.87
2019-02-14T11:46:04.384Z,9.97
2019-02-14T11:48:31.647Z,9.91
2019-02-14T11:50:58.874Z,9.92
2019-02-14T11:53:26.229Z,10.07
2019-02-14T11:55:53.632Z,10.07
2019-02-14T11:58:20.869Z,10.10
2019-02-14T12:00:48.130Z,10.19
2019-02-14T12:03:15.368Z,10.27
2019-02-14T12:05:42.637Z,10.27
2019-02-14T12:08:09.922Z,10.27
2019-02-14T12:10:37.203Z,10.24
2019-02-14T12:13:04.457Z,10.23
2019-02-14T12:15:31.737Z,10.23
2019-02-14T12:17:58.962Z,10.48
2019-02-14T12:20:26.217Z,10.51
2019-02-14T12:22:53.507Z,10.52
2019-02-14T12:25:20.915Z,10.54
2019-02-14T12:27:48.122Z,10.48
2019-02-14T12:30:15.395Z,10.42
2019-02-14T12:32:42.622Z,10.58
2019-02-14T12:35:09.886Z,10.58
2019-02-14T12:37:37.113Z,10.67
2019-02-14T12:40:05.080Z,10.70
2019-02-14T12:42:32.351Z,10.79
2019-02-14T12:44:59.573Z,10.80
2019-02-14T12:47:26.793Z,10.79
2019-02-14T12:49:54.045Z,10.86
2019-02-14T12:52:21.319Z,10.92
2019-02-14T12:54:48.626Z,11.00
2019-02-14T12:57:15.919Z,10.87
2019-02-14T12:59:43.116Z,10.93
2019-02-14T13:02:10.443Z,10.75
2019-02-14T13:04:37.715Z,10.85
2019-02-14T13:07:04.953Z,10.93
2019-02-14T13:09:32.227Z,10.93
2019-02-14T13:11:59.512Z,10.95
2019-02-14T13:14:26.744Z,11.09
2019-02-14T13:16:54.020Z,11.09
2019-02-14T13:19:21.258Z,11.15
2019-02-14T13:21:48.479Z,11.23
2019-02-14T13:24:15.748Z,11.26
2019-02-14T13:26:43.003Z,11.29
2019-02-14T13:29:10.287Z,11.13
2019-02-14T13:31:37.498Z,11.30
2019-02-14T13:34:04.722Z,11.26
2019-02-14T13:36:31.997Z,11.28
2019-02-14T13:38:59.278Z,11.28
2019-02-14T13:41:31.191Z,11.33
2019-02-14T13:43:55.685Z,11.22
2019-02-14T13:46:23.855Z,11.22
2019-02-14T13:48:51.191Z,11.24
2019-02-14T13:51:18.454Z,11.23
2019-02-14T13:53:45.661Z,11.30
2019-02-14T13:56:12.952Z,11.28
2019-02-14T13:58:40.159Z,11.53
2019-02-14T14:01:07.436Z,11.36
2019-02-14T14:03:34.715Z,11.38
2019-02-14T14:06:01.963Z,11.38
2019-02-14T14:08:29.205Z,11.42
2019-02-14T14:10:56.460Z,11.36
2019-02-14T14:13:23.670Z,11.36
2019-02-14T14:15:50.898Z,11.42
2019-02-14T14:18:18.172Z,11.40
2019-02-14T14:20:45.376Z,11.45
2019-02-14T14:23:12.639Z,11.39
2019-02-14T14:25:39.878Z,11.51
2019-02-14T14:28:07.112Z,11.51
2019-02-14T14:30:34.439Z,11.44
2019-02-14T14:33:01.696Z,11.50
2019-02-14T14:35:28.941Z,11.62
2019-02-14T14:37:56.177Z,11.40
2019-02-14T14:40:23.420Z,11.52
2019-02-14T14:43:13.089Z,11.60
2019-02-14T14:46:02.495Z,11.36
2019-02-14T14:48:35.452Z,11.38
2019-02-14T14:51:02.669Z,11.42
2019-02-14T14:53:29.892Z,11.34
2019-02-14T14:55:57.149Z,11.33
2019-02-14T14:58:24.393Z,11.38
2019-02-14T15:00:51.621Z,11.43
2019-02-14T15:03:18.862Z,11.45
2019-02-14T15:05:46.078Z,11.47
2019-02-14T15:08:13.317Z,11.40
2019-02-14T15:10:40.606Z,11.23
2019-02-14T15:13:07.836Z,11.32
2019-02-14T15:15:35.050Z,11.41
2019-02-14T15:18:02.320Z,11.36
2019-02-14T15:20:29.574Z,11.26
2019-02-14T15:22:56.813Z,11.32
2019-02-14T15:25:24.084Z,11.31
2019-02-14T15:27:51.343Z,11.31
2019-02-14T15:30:18.628Z,11.23
2019-02-14T15:32:45.970Z,11.22
2019-02-14T15:35:13.200Z,11.28
2019-02-14T15:37:41.980Z,11.25
2019-02-14T15:40:10.076Z,11.15
2019-02-14T15:42:37.462Z,11.15
2019-02-14T15:45:05.033Z,11.22
2019-02-14T15:47:32.268Z,11.27
2019-02-14T15:49:59.548Z,11.20
2019-02-14T15:52:27.548Z,11.14
2019-02-14T15:54:57.604Z,11.25
2019-02-14T15:57:25.057Z,11.22
2019-02-14T15:59:52.317Z,11.21
2019-02-14T16:02:19.529Z,11.25
2019-02-14T16:04:46.761Z,11.28
2019-02-14T16:07:15.353Z,11.30
2019-02-14T16:09:43.170Z,11.30
2019-02-14T16:12:10.432Z,11.30
2019-02-14T16:14:37.769Z,11.27
2019-02-14T16:17:06.764Z,11.25
2019-02-14T16:19:34.503Z,11.22
2019-02-14T16:22:03.279Z,11.11
2019-02-14T16:24:30.555Z,11.14
2019-02-14T16:26:59.172Z,11.07
2019-02-14T16:29:27.459Z,11.05
2019-02-14T16:31:54.761Z,11.04
2019-02-14T16:34:22.063Z,10.98
2019-02-14T16:36:49.293Z,10.94
2019-02-14T16:39:16.619Z,10.90
2019-02-14T16:41:43.891Z,10.85
2019-02-14T16:44:11.154Z,10.76
2019-02-14T16:46:38.392Z,10.67
2019-02-14T16:49:05.679Z,10.59
2019-02-14T16:51:32.913Z,10.55
2019-02-14T16:54:00.163Z,10.50
2019-02-14T16:56:27.430Z,10.45
2019-02-14T16:58:54.646Z,10.38
2019-02-14T17:01:21.864Z,10.30
2019-02-14T17:03:49.115Z,10.20
2019-02-14T17:06:16.391Z,9.99
2019-02-14T17:08:43.633Z,9.99
2019-02-14T17:11:10.906Z,9.95
2019-02-14T17:13:38.159Z,9.79
2019-02-14T17:16:05.488Z,9.79
2019-02-14T17:18:32.748Z,9.79
2019-02-14T17:21:00.040Z,9.74
2019-02-14T17:23:27.237Z,9.73
2019-02-14T17:25:54.466Z,9.68
2019-02-14T17:28:26.893Z,9.61
2019-02-14T17:30:54.121Z,9.57
2019-02-14T17:33:21.385Z,9.48
2019-02-14T17:35:48.652Z,9.48
2019-02-14T17:38:15.934Z,9.48
2019-02-14T17:40:46.045Z,9.39
2019-02-14T17:43:12.295Z,9.39
2019-02-14T17:45:39.573Z,9.34
2019-02-14T17:48:06.785Z,9.31
2019-02-14T17:50:34.068Z,9.26
2019-02-14T17:53:01.298Z,9.26
2019-02-14T17:55:28.528Z,9.22
2019-02-14T17:57:56.301Z,9.17
2019-02-14T18:00:23.540Z,9.14
2019-02-14T18:02:50.794Z,9.07
2019-02-14T18:05:18.021Z,9.03
2019-02-14T18:07:45.288Z,9.01
2019-02-14T18:10:12.535Z,8.96
2019-02-14T18:12:39.757Z,8.90
2019-02-14T18:15:09.144Z,8.84
2019-02-14T18:17:36.371Z,8.74
2019-02-14T18:20:04.180Z,8.63
2019-02-14T18:22:31.454Z,8.59
2019-02-14T18:24:58.681Z,8.55
2019-02-14T18:27:25.947Z,8.49
2019-02-14T18:29:53.191Z,8.43
2019-02-14T18:32:20.405Z,8.39
2019-02-14T18:34:47.648Z,8.34
2019-02-14T18:37:14.883Z,8.29
2019-02-14T18:39:42.123Z,8.24
2019-02-14T18:42:09.390Z,8.22
2019-02-14T18:44:36.621Z,8.16
2019-02-14T18:47:03.943Z,8.13
2019-02-14T18:49:31.185Z,8.07
2019-02-14T18:51:58.479Z,8.03
2019-02-14T18:54:25.705Z,7.96
2019-02-14T18:56:52.939Z,7.90
2019-02-14T18:59:21.514Z,7.80
2019-02-14T19:01:48.727Z,7.72
2019-02-14T19:04:15.959Z,7.65
2019-02-14T19:06:43.220Z,7.63
2019-02-14T19:09:11.043Z,7.59
2019-02-14T19:11:38.290Z,7.54
2019-02-14T19:14:05.614Z,7.46
2019-02-14T19:16:32.872Z,7.45
2019-02-14T19:19:00.484Z,7.38
2019-02-14T19:21:27.748Z,7.36
2019-02-14T19:23:54.948Z,7.30
2019-02-14T19:26:22.148Z,7.22
2019-02-14T19:28:49.393Z,7.18
2019-02-14T19:31:16.601Z,7.13
2019-02-14T19:33:43.912Z,7.06
2019-02-14T19:36:11.194Z,6.99
2019-02-14T19:38:38.432Z,6.89
2019-02-14T19:41:05.686Z,6.86
2019-02-14T19:43:32.893Z,6.87
2019-02-14T19:46:00.209Z,6.85
2019-02-14T19:48:27.425Z,6.80
2019-02-14T19:50:54.663Z,6.77
2019-02-14T19:53:21.945Z,6.73
2019-02-14T19:55:49.180Z,6.62
2019-02-14T19:58:16.403Z,6.63
2019-02-14T20:00:43.674Z,6.63
2019-02-14T20:03:10.906Z,6.59
2019-02-14T20:05:38.188Z,6.56
2019-02-14T20:08:05.909Z,6.50
2019-02-14T20:10:33.159Z,6.49
2019-02-14T20:13:00.461Z,6.45
2019-02-14T20:15:36.486Z,6.43
2019-02-14T20:18:01.694Z,6.42
2019-02-14T20:20:34.787Z,6.40
2019-02-14T20:23:03.536Z,6.41
2019-02-14T20:25:30.745Z,6.40
2019-02-14T20:27:58.032Z,6.37
2019-02-14T20:30:25.729Z,6.34
2019-02-14T20:32:53.092Z,6.32
2019-02-14T20:35:22.554Z,6.28
2019-02-14T20:37:49.801Z,6.28
2019-02-14T20:40:17.066Z,6.31
2019-02-14T20:42:44.345Z,6.59
2019-02-14T20:45:12.886Z,6.92
2019-02-14T20:47:40.093Z,6.99
2019-02-14T20:50:09.228Z,6.93
2019-02-14T20:52:36.465Z,6.84
2019-02-14T20:55:04.170Z,6.79
2019-02-14T20:57:31.382Z,6.74
2019-02-14T20:59:58.710Z,6.70
2019-02-14T21:02:25.952Z,6.68
2019-02-14T21:04:53.451Z,6.64
2019-02-14T21:07:20.727Z,6.62
2019-02-14T21:09:47.971Z,6.57
2019-02-14T21:12:15.217Z,6.54
2019-02-14T21:14:42.472Z,6.50
2019-02-14T21:17:09.707Z,6.47
2019-02-14T21:19:37.038Z,6.39
2019-02-14T21:22:04.258Z,6.35
2019-02-14T21:24:31.545Z,6.31
2019-02-14T21:26:58.797Z,6.24
2019-02-14T21:29:26.060Z,6.17
2019-02-14T21:31:53.346Z,6.09
2019-02-14T21:34:20.632Z,6.04
2019-02-14T21:36:47.851Z,5.97
2019-02-14T21:39:15.108Z,5.93
2019-02-14T21:41:42.474Z,5.89
2019-02-14T21:44:09.694Z,5.84
2019-02-14T21:46:37.051Z,5.82
2019-02-14T21:49:04.338Z,5.77
2019-02-14T21:51:31.550Z,5.72
2019-02-14T21:53:58.764Z,5.67
2019-02-14T21:56:26.040Z,5.61
2019-02-14T21:58:53.291Z,5.58
2019-02-14T22:01:24.317Z,5.55
2019-02-14T22:03:51.661Z,5.50
2019-02-14T22:06:18.875Z,5.44
2019-02-14T22:08:46.165Z,5.40
2019-02-14T22:11:13.380Z,5.33
2019-02-14T22:13:40.663Z,5.29
2019-02-14T22:16:08.045Z,5.27
2019-02-14T22:18:35.259Z,5.23
2019-02-14T22:21:02.506Z,5.24
2019-02-14T22:23:29.775Z,5.25
2019-02-14T22:25:57.086Z,5.23
2019-02-14T22:28:24.356Z,5.25
2019-02-14T22:30:51.619Z,5.26
2019-02-14T22:33:18.842Z,5.27
2019-02-14T22:35:46.077Z,5.27
2019-02-14T22:38:13.295Z,5.30
2019-02-14T22:40:40.547Z,5.32
2019-02-14T22:43:07.764Z,5.32
2019-02-14T22:45:35.016Z,5.38
2019-02-14T22:48:02.228Z,5.39
2019-02-14T22:50:29.461Z,5.40
2019-02-14T22:52:56.704Z,5.40
2019-02-14T22:55:23.915Z,5.42
2019-02-14T22:57:51.480Z,5.45
2019-02-14T23:00:38.889Z,5.44
2019-02-14T23:03:06.408Z,5.43
2019-02-14T23:05:33.666Z,5.41
2019-02-14T23:08:00.869Z,5.39
2019-02-14T23:10:28.122Z,5.38
2019-02-14T23:12:56.258Z,5.36
2019-02-14T23:15:23.888Z,5.32
2019-02-14T23:17:51.219Z,5.31
2019-02-14T23:20:18.433Z,5.31
2019-02-14T23:22:45.696Z,5.30
2019-02-14T23:25:12.927Z,5.27
2019-02-14T23:27:40.204Z,5.23
2019-02-14T23:30:07.495Z,5.22
2019-02-14T23:32:34.817Z,5.18
2019-02-14T23:35:02.090Z,5.13
2019-02-14T23:37:29.611Z,5.09
2019-02-14T23:39:56.848Z,5.05
2019-02-14T23:42:24.066Z,4.99
2019-02-14T23:44:51.336Z,4.97
2019-02-14T23:47:18.576Z,4.91
2019-02-14T23:49:45.815Z,4.88
2019-02-14T23:52:13.083Z,4.86
2019-02-14T23:54:40.330Z,4.81
2019-02-14T23:57:07.576Z,4.77
2019-02-14T23:59:34.841Z,4.72
